You are not logged in, Click here to log in
舊金山國際機場SFO / KSFO 舊金山市南方大約13英里
ICAO: KSFO Country: 舊金山市南方大約13英里
Latitude: 37.6213 Longitude: -122.379
Total Arrivals: 29 Total Departures: 25
Latest Arrival: NH8 (RJAA-KSFO)Mori. Yang Latest Departure: BR17 (KSFO-RCTP)Mori. Yang
Scenery:
METAR : KSFO 190356Z 28013KT 10SM FEW200 12/04 A3001 RMK AO2 SLP161 T01170039

舊金山國際機場SFO

You are accessing this site from IP address 35.175.113.29. Virtual Airline. CMS by phpVMS.Website designed by Zumeweb and edited by Theo Bearman.
There is 0 User(s) Online: | and 4 Guest(s) Online.
All information on this site is for fight simulation purposes only. This site is for flight logging for pilots of Virtual Airline&模擬飛行論壇 FlySim only.